Terminal Aerodrome Forecast
Issued by NWS

Home | Current Version | Previous Version | Graphics & Text | Print | Product List | Glossary On
Versions: 1 2 3 4 5 6 7 8 9 10 11 12 13 14 15 16 17
000
FTUS43 KICT 251137
TAFCNU
TAF
KCNU 251137Z 2512/2612 22012G18KT P6SM VCSH BKN015
     FM251300 26015G22KT P6SM SCT015
     FM251600 28017G23KT P6SM SCT035
     FM260000 01014G20KT P6SM FEW045
     FM260600 05013KT P6SM SCT015 BKN025=

USA.gov is the U.S. government's official web portal to all federal, state and local government web resources and services.